DLH061 EDDH-EYVI
Flight info
| Callsign | DLH061 |
|---|---|
| Flight time | 1h 19m |
| Altitude | 35000 |
| Route | LUGEG3G LUGEG P605 MEGAR DCT KOSEB DCT NINTA DCT ADAXA DCT VAGVO DCT OTNAV |
| Aircraft | A320/M-SDE3FGHIRWY/LB1 |
Departure
| Time | 2026-04-21 12:23 |
|---|---|
| Airport | Hamburg Helmut Schmidt Airport (EDDH) |
Arrival
| Time | 2026-04-21 13:43 |
|---|---|
| Airport | Vilnius International Airport (EYVI) |
| Time | Latitude | Longitude | Altitude | Speed | Heading |
|---|---|---|---|---|---|
| 2026-04-21 11:49 | 53.62987 | 10.00357 | 46 ft | 0 kts | 117° |
| 2026-04-21 12:12 | 53.62993 | 10.00338 | 45 ft | 2 kts | 117° |
| 2026-04-21 12:12 | 53.63000 | 10.00313 | 41 ft | 2 kts | 117° |
| 2026-04-21 12:13 | 53.63007 | 10.00289 | 42 ft | 2 kts | 116° |
| 2026-04-21 12:13 | 53.63014 | 10.00265 | 43 ft | 2 kts | 113° |
| 2026-04-21 12:13 | 53.63020 | 10.00239 | 42 ft | 2 kts | 126° |
| 2026-04-21 12:13 | 53.63033 | 10.00226 | 40 ft | 2 kts | 199° |
| 2026-04-21 12:14 | 53.63043 | 10.00232 | 41 ft | 1 kts | 211° |
| 2026-04-21 12:14 | 53.63044 | 10.00233 | 41 ft | 0 kts | 211° |
| 2026-04-21 12:18 | 53.63042 | 10.00230 | 41 ft | 8 kts | 212° |
| 2026-04-21 12:18 | 53.62933 | 10.00116 | 46 ft | 21 kts | 212° |
| 2026-04-21 12:19 | 53.62850 | 9.99978 | 46 ft | 10 kts | 245° |
| 2026-04-21 12:19 | 53.62844 | 9.99957 | 47 ft | 0 kts | 244° |
| 2026-04-21 12:21 | 53.62822 | 9.99883 | 47 ft | 13 kts | 243° |
| 2026-04-21 12:22 | 53.62841 | 9.99768 | 47 ft | 1 kts | 332° |
| 2026-04-21 12:22 | 53.62976 | 9.99652 | 46 ft | 53 kts | 333° |
| 2026-04-21 12:23 | 53.63556 | 9.99155 | 45 ft | 131 kts | 333° |
| 2026-04-21 12:23 | 53.64547 | 9.98297 | 126 ft | 181 kts | 338° |
| 2026-04-21 12:23 | 53.65727 | 9.97289 | 688 ft | 201 kts | 338° |
| 2026-04-21 12:23 | 53.67003 | 9.96197 | 1627 ft | 207 kts | 336° |
| 2026-04-21 12:24 | 53.68294 | 9.95088 | 2744 ft | 209 kts | 342° |
| 2026-04-21 12:24 | 53.69705 | 9.94629 | 3803 ft | 208 kts | 4° |
| 2026-04-21 12:24 | 53.71198 | 9.94659 | 4657 ft | 228 kts | 5° |
| 2026-04-21 12:24 | 53.72900 | 9.95040 | 4938 ft | 267 kts | 25° |
| 2026-04-21 12:25 | 53.74475 | 9.97075 | 5008 ft | 309 kts | 52° |
| 2026-04-21 12:25 | 53.75726 | 10.00298 | 5011 ft | 347 kts | 62° |
| 2026-04-21 12:25 | 53.76776 | 10.03988 | 5421 ft | 319 kts | 65° |
| 2026-04-21 12:25 | 53.77574 | 10.07115 | 5476 ft | 266 kts | 68° |
| 2026-04-21 12:26 | 53.78257 | 10.10022 | 5848 ft | 261 kts | 68° |
| 2026-04-21 12:26 | 53.78931 | 10.12815 | 6942 ft | 255 kts | 67° |
| 2026-04-21 12:26 | 53.79623 | 10.15534 | 7787 ft | 256 kts | 66° |
| 2026-04-21 12:26 | 53.80357 | 10.18294 | 8601 ft | 259 kts | 65° |
| 2026-04-21 12:27 | 53.81132 | 10.21108 | 9422 ft | 262 kts | 65° |
| 2026-04-21 12:27 | 53.81920 | 10.23907 | 10189 ft | 268 kts | 65° |
| 2026-04-21 12:27 | 53.82759 | 10.26862 | 10446 ft | 290 kts | 65° |
| 2026-04-21 12:27 | 53.83630 | 10.29909 | 11344 ft | 284 kts | 65° |
| 2026-04-21 12:28 | 53.84478 | 10.32875 | 12370 ft | 276 kts | 65° |
| 2026-04-21 12:28 | 53.85299 | 10.35749 | 13441 ft | 266 kts | 65° |
| 2026-04-21 12:28 | 53.86089 | 10.38516 | 14487 ft | 255 kts | 65° |
| 2026-04-21 12:28 | 53.86831 | 10.41118 | 15464 ft | 242 kts | 65° |
| 2026-04-21 12:29 | 53.87546 | 10.43635 | 16480 ft | 228 kts | 65° |
| 2026-04-21 12:29 | 53.88236 | 10.46081 | 17013 ft | 232 kts | 65° |
| 2026-04-21 12:29 | 53.88926 | 10.48532 | 17576 ft | 235 kts | 65° |
| 2026-04-21 12:29 | 53.89635 | 10.51047 | 18284 ft | 238 kts | 65° |
| 2026-04-21 12:30 | 53.90354 | 10.53585 | 18958 ft | 240 kts | 65° |
| 2026-04-21 12:30 | 53.91082 | 10.56152 | 19572 ft | 242 kts | 65° |
| 2026-04-21 12:30 | 53.91814 | 10.58733 | 20204 ft | 244 kts | 66° |
| 2026-04-21 12:30 | 53.92558 | 10.61369 | 20845 ft | 245 kts | 66° |
| 2026-04-21 12:31 | 53.93286 | 10.63948 | 21454 ft | 247 kts | 64° |
| 2026-04-21 12:31 | 53.94152 | 10.66478 | 22052 ft | 250 kts | 58° |
| 2026-04-21 12:31 | 53.95209 | 10.68843 | 22631 ft | 254 kts | 52° |
| 2026-04-21 12:31 | 53.96416 | 10.71057 | 23205 ft | 256 kts | 51° |
| 2026-04-21 12:32 | 53.97654 | 10.73316 | 23508 ft | 269 kts | 51° |
| 2026-04-21 12:32 | 53.98968 | 10.75727 | 23658 ft | 287 kts | 51° |
| 2026-04-21 12:32 | 54.00357 | 10.78272 | 24000 ft | 297 kts | 51° |
| 2026-04-21 12:32 | 54.01771 | 10.80856 | 24462 ft | 301 kts | 51° |
| 2026-04-21 12:33 | 54.03204 | 10.83470 | 24946 ft | 303 kts | 51° |
| 2026-04-21 12:33 | 54.04644 | 10.86108 | 25441 ft | 304 kts | 51° |
| 2026-04-21 12:33 | 54.06083 | 10.88752 | 25945 ft | 304 kts | 52° |
| 2026-04-21 12:33 | 54.07517 | 10.91387 | 26453 ft | 302 kts | 52° |
| 2026-04-21 12:34 | 54.08940 | 10.93999 | 26966 ft | 299 kts | 52° |
| 2026-04-21 12:34 | 54.10346 | 10.96586 | 27496 ft | 296 kts | 52° |
| 2026-04-21 12:34 | 54.11733 | 10.99143 | 27966 ft | 294 kts | 52° |
| 2026-04-21 12:34 | 54.13124 | 11.01717 | 28297 ft | 296 kts | 53° |
| 2026-04-21 12:35 | 54.14523 | 11.04311 | 28642 ft | 298 kts | 53° |
| 2026-04-21 12:35 | 54.15930 | 11.06919 | 28984 ft | 299 kts | 53° |
| 2026-04-21 12:35 | 54.17341 | 11.09537 | 29320 ft | 301 kts | 53° |
| 2026-04-21 12:35 | 54.18762 | 11.12170 | 29651 ft | 302 kts | 53° |
| 2026-04-21 12:36 | 54.20190 | 11.14818 | 29978 ft | 304 kts | 53° |
| 2026-04-21 12:36 | 54.21623 | 11.17477 | 30325 ft | 304 kts | 53° |
| 2026-04-21 12:36 | 54.23060 | 11.20142 | 30628 ft | 305 kts | 53° |
| 2026-04-21 12:36 | 54.24501 | 11.22813 | 30901 ft | 306 kts | 52° |
| 2026-04-21 12:37 | 54.25943 | 11.25496 | 31160 ft | 307 kts | 52° |
| 2026-04-21 12:37 | 54.27392 | 11.28199 | 31401 ft | 309 kts | 52° |
| 2026-04-21 12:37 | 54.28846 | 11.30924 | 31647 ft | 311 kts | 53° |
| 2026-04-21 12:37 | 54.30305 | 11.33669 | 31878 ft | 313 kts | 53° |
| 2026-04-21 12:38 | 54.31769 | 11.36431 | 32104 ft | 314 kts | 52° |
| 2026-04-21 12:38 | 54.33246 | 11.39211 | 32346 ft | 316 kts | 52° |
| 2026-04-21 12:38 | 54.34736 | 11.42001 | 32572 ft | 318 kts | 52° |
| 2026-04-21 12:38 | 54.36255 | 11.44845 | 32562 ft | 329 kts | 52° |
| 2026-04-21 12:39 | 54.37819 | 11.47783 | 32567 ft | 338 kts | 52° |
| 2026-04-21 12:39 | 54.41071 | 11.53927 | 32574 ft | 357 kts | 52° |
| 2026-04-21 12:39 | 54.42748 | 11.57122 | 32679 ft | 363 kts | 52° |
| 2026-04-21 12:40 | 54.44452 | 11.60361 | 32808 ft | 368 kts | 52° |
| 2026-04-21 12:40 | 54.46142 | 11.63617 | 32916 ft | 372 kts | 54° |
| 2026-04-21 12:40 | 54.47645 | 11.67236 | 33054 ft | 373 kts | 62° |
| 2026-04-21 12:40 | 54.48957 | 11.71115 | 33216 ft | 376 kts | 63° |
| 2026-04-21 12:41 | 54.50253 | 11.74996 | 33690 ft | 372 kts | 63° |
| 2026-04-21 12:41 | 54.51526 | 11.78825 | 34242 ft | 365 kts | 63° |
| 2026-04-21 12:41 | 54.52773 | 11.82588 | 34733 ft | 358 kts | 63° |
| 2026-04-21 12:41 | 54.53996 | 11.86281 | 35107 ft | 355 kts | 63° |
| 2026-04-21 12:42 | 54.55220 | 11.89982 | 35255 ft | 356 kts | 62° |
| 2026-04-21 12:42 | 54.56450 | 11.93706 | 35370 ft | 360 kts | 62° |
| 2026-04-21 12:42 | 54.57691 | 11.97483 | 35404 ft | 365 kts | 62° |
| 2026-04-21 12:43 | 54.60231 | 12.05211 | 35403 ft | 376 kts | 62° |
| 2026-04-21 12:43 | 54.62859 | 12.13187 | 35404 ft | 388 kts | 62° |
| 2026-04-21 12:44 | 54.65563 | 12.21391 | 35391 ft | 398 kts | 62° |
| 2026-04-21 12:44 | 54.68313 | 12.29826 | 35407 ft | 408 kts | 62° |
| 2026-04-21 12:45 | 54.71115 | 12.38469 | 35406 ft | 416 kts | 62° |
| 2026-04-21 12:45 | 54.73965 | 12.47261 | 35398 ft | 422 kts | 62° |
| 2026-04-21 12:46 | 54.76842 | 12.56181 | 35404 ft | 428 kts | 62° |
| 2026-04-21 12:46 | 54.79614 | 12.65084 | 35399 ft | 409 kts | 64° |
| 2026-04-21 12:47 | 54.82092 | 12.73762 | 35404 ft | 394 kts | 65° |
| 2026-04-21 12:47 | 54.84446 | 12.82176 | 35402 ft | 381 kts | 65° |
| 2026-04-21 12:48 | 54.86738 | 12.90306 | 35407 ft | 368 kts | 64° |
| 2026-04-21 12:48 | 54.88967 | 12.98154 | 35410 ft | 356 kts | 64° |
| 2026-04-21 12:49 | 54.91119 | 13.05738 | 35405 ft | 344 kts | 64° |
| 2026-04-21 12:49 | 54.93187 | 13.13059 | 35407 ft | 331 kts | 64° |
| 2026-04-21 12:50 | 54.95254 | 13.20419 | 35416 ft | 357 kts | 64° |
| 2026-04-21 12:50 | 54.96367 | 13.24405 | 35411 ft | 376 kts | 64° |
| 2026-04-21 12:50 | 54.97535 | 13.28594 | 35412 ft | 393 kts | 64° |
| 2026-04-21 12:50 | 54.98753 | 13.32953 | 35409 ft | 408 kts | 64° |
| 2026-04-21 12:51 | 54.99979 | 13.37332 | 35405 ft | 405 kts | 64° |
| 2026-04-21 12:51 | 55.02406 | 13.46023 | 35402 ft | 393 kts | 64° |
| 2026-04-21 12:52 | 55.04750 | 13.54500 | 35397 ft | 383 kts | 64° |
| 2026-04-21 12:52 | 55.07033 | 13.62776 | 35402 ft | 374 kts | 64° |
| 2026-04-21 12:53 | 55.09256 | 13.70856 | 35403 ft | 365 kts | 64° |
| 2026-04-21 12:53 | 55.11073 | 13.77481 | 35399 ft | 357 kts | 64° |
| 2026-04-21 12:54 | 55.13189 | 13.85217 | 35407 ft | 349 kts | 64° |
| 2026-04-21 12:54 | 55.15232 | 13.92731 | 35395 ft | 340 kts | 64° |
| 2026-04-21 12:55 | 55.17245 | 14.00163 | 35391 ft | 331 kts | 64° |
| 2026-04-21 12:55 | 55.19191 | 14.07335 | 35394 ft | 321 kts | 64° |
| 2026-04-21 12:56 | 55.21056 | 14.14242 | 35395 ft | 312 kts | 64° |
| 2026-04-21 12:56 | 55.22906 | 14.21115 | 35398 ft | 308 kts | 64° |
| 2026-04-21 12:57 | 55.24752 | 14.28001 | 35398 ft | 317 kts | 64° |
| 2026-04-21 12:57 | 55.26662 | 14.35126 | 35398 ft | 329 kts | 64° |
| 2026-04-21 12:58 | 55.28639 | 14.42536 | 35400 ft | 342 kts | 64° |
| 2026-04-21 12:58 | 55.30671 | 14.50198 | 35410 ft | 355 kts | 64° |
| 2026-04-21 12:59 | 55.32786 | 14.58203 | 35394 ft | 368 kts | 64° |
| 2026-04-21 12:59 | 55.34972 | 14.66490 | 35394 ft | 380 kts | 64° |
| 2026-04-21 13:00 | 55.37221 | 14.75048 | 35394 ft | 391 kts | 64° |
| 2026-04-21 13:00 | 55.39523 | 14.83834 | 35396 ft | 399 kts | 65° |
| 2026-04-21 13:01 | 55.41862 | 14.92811 | 35395 ft | 406 kts | 64° |
| 2026-04-21 13:01 | 55.44214 | 15.01869 | 35392 ft | 407 kts | 64° |
| 2026-04-21 13:02 | 55.46567 | 15.10943 | 35390 ft | 407 kts | 65° |
| 2026-04-21 13:02 | 55.50074 | 15.24581 | 35397 ft | 407 kts | 64° |
| 2026-04-21 13:03 | 55.52401 | 15.33684 | 35386 ft | 407 kts | 64° |
| 2026-04-21 13:03 | 55.54728 | 15.42793 | 35384 ft | 407 kts | 64° |
| 2026-04-21 13:04 | 55.57045 | 15.51919 | 35378 ft | 408 kts | 65° |
| 2026-04-21 13:04 | 55.59364 | 15.61084 | 35363 ft | 410 kts | 64° |
| 2026-04-21 13:05 | 55.61702 | 15.70326 | 35378 ft | 413 kts | 64° |
| 2026-04-21 13:05 | 55.64034 | 15.79615 | 35381 ft | 413 kts | 65° |
| 2026-04-21 13:06 | 55.66335 | 15.88863 | 35383 ft | 413 kts | 65° |
| 2026-04-21 13:06 | 55.68642 | 15.98178 | 35378 ft | 413 kts | 65° |
| 2026-04-21 13:07 | 55.70954 | 16.07498 | 35377 ft | 413 kts | 65° |
| 2026-04-21 13:07 | 55.73254 | 16.16830 | 35371 ft | 413 kts | 65° |
| 2026-04-21 13:08 | 55.75548 | 16.26169 | 35368 ft | 413 kts | 65° |
| 2026-04-21 13:08 | 55.77839 | 16.35522 | 35357 ft | 413 kts | 65° |
| 2026-04-21 13:09 | 55.80122 | 16.44883 | 35361 ft | 413 kts | 65° |
| 2026-04-21 13:09 | 55.82395 | 16.54264 | 35365 ft | 413 kts | 65° |
| 2026-04-21 13:10 | 55.84667 | 16.63658 | 35364 ft | 413 kts | 65° |
| 2026-04-21 13:10 | 55.86925 | 16.73058 | 35359 ft | 413 kts | 65° |
| 2026-04-21 13:11 | 55.89176 | 16.82477 | 35363 ft | 413 kts | 65° |
| 2026-04-21 13:11 | 55.91422 | 16.91909 | 35367 ft | 414 kts | 65° |
| 2026-04-21 13:12 | 55.93661 | 17.01363 | 35355 ft | 414 kts | 65° |
| 2026-04-21 13:12 | 55.95895 | 17.10814 | 35359 ft | 413 kts | 65° |
| 2026-04-21 13:13 | 55.98118 | 17.20264 | 35362 ft | 413 kts | 65° |
| 2026-04-21 13:13 | 56.00333 | 17.29714 | 35373 ft | 412 kts | 65° |
| 2026-04-21 13:14 | 56.02538 | 17.39176 | 35370 ft | 412 kts | 65° |
| 2026-04-21 13:14 | 56.04737 | 17.48642 | 35369 ft | 412 kts | 65° |
| 2026-04-21 13:15 | 56.06932 | 17.58119 | 35363 ft | 412 kts | 65° |
| 2026-04-21 13:15 | 56.09113 | 17.67614 | 35362 ft | 412 kts | 65° |
| 2026-04-21 13:16 | 56.11287 | 17.77114 | 35353 ft | 412 kts | 65° |
| 2026-04-21 13:16 | 56.13444 | 17.86617 | 35350 ft | 412 kts | 65° |
| 2026-04-21 13:17 | 56.15584 | 17.96053 | 35374 ft | 411 kts | 65° |
| 2026-04-21 13:17 | 56.17741 | 18.05559 | 35368 ft | 411 kts | 65° |
| 2026-04-21 13:18 | 56.19883 | 18.15056 | 35354 ft | 410 kts | 65° |
| 2026-04-21 13:18 | 56.22010 | 18.24559 | 35354 ft | 410 kts | 65° |
| 2026-04-21 13:19 | 56.23575 | 18.34433 | 35345 ft | 413 kts | 75° |
| 2026-04-21 13:19 | 56.24722 | 18.44563 | 35342 ft | 414 kts | 75° |
| 2026-04-21 13:20 | 56.25873 | 18.54703 | 35337 ft | 414 kts | 75° |
| 2026-04-21 13:20 | 56.27016 | 18.64851 | 35360 ft | 414 kts | 75° |
| 2026-04-21 13:21 | 56.28141 | 18.75004 | 35357 ft | 414 kts | 75° |
| 2026-04-21 13:21 | 56.29238 | 18.85168 | 35349 ft | 415 kts | 78° |
| 2026-04-21 13:22 | 56.29073 | 18.95619 | 35335 ft | 425 kts | 97° |
| 2026-04-21 13:22 | 56.27782 | 19.06024 | 35319 ft | 426 kts | 97° |
| 2026-04-21 13:23 | 56.26481 | 19.16430 | 35310 ft | 426 kts | 97° |
| 2026-04-21 13:23 | 56.25153 | 19.26833 | 35331 ft | 428 kts | 101° |
| 2026-04-21 13:24 | 56.22905 | 19.36858 | 35313 ft | 435 kts | 109° |
| 2026-04-21 13:24 | 56.20429 | 19.46767 | 35308 ft | 435 kts | 109° |
| 2026-04-21 13:25 | 56.17944 | 19.56673 | 35303 ft | 435 kts | 109° |
| 2026-04-21 13:25 | 56.02488 | 20.38194 | 35325 ft | 25803 kts | 109° |
| 2026-04-21 13:25 | 55.90081 | 21.03346 | 35547 ft | 432 kts | 110° |
| 2026-04-21 13:26 | 55.88397 | 21.07856 | 35521 ft | 446 kts | 127° |
| 2026-04-21 13:26 | 55.39153 | 22.69961 | 35531 ft | 23 kts | 128° |
| 2026-04-21 13:26 | 55.43875 | 22.59496 | 36028 ft | 432 kts | 116° |
| 2026-04-21 13:26 | 55.42529 | 22.64099 | 36462 ft | 422 kts | 118° |
| 2026-04-21 13:27 | 55.40896 | 22.68325 | 37091 ft | 410 kts | 116° |
| 2026-04-21 13:27 | 55.39770 | 22.72810 | 37440 ft | 397 kts | 104° |
| 2026-04-21 13:27 | 55.38310 | 22.76927 | 37645 ft | 406 kts | 131° |
| 2026-04-21 13:27 | 55.22880 | 23.65319 | 17269 ft | 12707 kts | 128° |
| 2026-04-21 13:28 | 55.01808 | 23.85683 | 13031 ft | 412 kts | 122° |
| 2026-04-21 13:28 | 55.00207 | 23.89797 | 13256 ft | 406 kts | 116° |
| 2026-04-21 13:28 | 54.98929 | 23.94070 | 13196 ft | 384 kts | 117° |
| 2026-04-21 13:28 | 54.97471 | 23.97776 | 13460 ft | 362 kts | 122° |
| 2026-04-21 13:29 | 54.95917 | 24.01162 | 13050 ft | 356 kts | 126° |
| 2026-04-21 13:29 | 54.94300 | 24.04475 | 12131 ft | 363 kts | 125° |
| 2026-04-21 13:29 | 54.92900 | 24.08139 | 11353 ft | 366 kts | 115° |
| 2026-04-21 13:29 | 54.91604 | 24.11898 | 11308 ft | 359 kts | 119° |
| 2026-04-21 13:30 | 54.90190 | 24.15435 | 11160 ft | 354 kts | 121° |
| 2026-04-21 13:30 | 54.88743 | 24.18892 | 10728 ft | 357 kts | 122° |
| 2026-04-21 13:30 | 54.87261 | 24.22331 | 10426 ft | 355 kts | 123° |
| 2026-04-21 13:30 | 54.85775 | 24.25742 | 9822 ft | 361 kts | 122° |
| 2026-04-21 13:31 | 54.84387 | 24.29336 | 9525 ft | 356 kts | 118° |
| 2026-04-21 13:31 | 54.83060 | 24.32937 | 9092 ft | 355 kts | 119° |
| 2026-04-21 13:31 | 54.81680 | 24.36561 | 8247 ft | 366 kts | 120° |
| 2026-04-21 13:31 | 54.80237 | 24.40262 | 7235 ft | 366 kts | 121° |
| 2026-04-21 13:32 | 54.78917 | 24.43665 | 6591 ft | 318 kts | 120° |
| 2026-04-21 13:32 | 54.77791 | 24.46747 | 5930 ft | 296 kts | 117° |
| 2026-04-21 13:32 | 54.77093 | 24.49997 | 5871 ft | 282 kts | 93° |
| 2026-04-21 13:32 | 54.77072 | 24.53329 | 5869 ft | 273 kts | 85° |
| 2026-04-21 13:33 | 54.76993 | 24.56576 | 5869 ft | 268 kts | 95° |
| 2026-04-21 13:33 | 54.76511 | 24.59668 | 5864 ft | 265 kts | 109° |
| 2026-04-21 13:33 | 54.75634 | 24.62450 | 5864 ft | 263 kts | 121° |
| 2026-04-21 13:33 | 54.74476 | 24.64872 | 5864 ft | 260 kts | 129° |
| 2026-04-21 13:34 | 54.73255 | 24.67132 | 5769 ft | 257 kts | 129° |
| 2026-04-21 13:34 | 54.72006 | 24.69492 | 5229 ft | 273 kts | 129° |
| 2026-04-21 13:34 | 54.70733 | 24.71914 | 5119 ft | 270 kts | 128° |
| 2026-04-21 13:34 | 54.69481 | 24.74289 | 5127 ft | 264 kts | 128° |
| 2026-04-21 13:35 | 54.64805 | 24.84118 | 5274 ft | 254 kts | 126° |
| 2026-04-21 13:35 | 54.63593 | 24.86341 | 5163 ft | 255 kts | 132° |
| 2026-04-21 13:35 | 54.62333 | 24.88465 | 5114 ft | 250 kts | 132° |
| 2026-04-21 13:35 | 54.61104 | 24.90541 | 5115 ft | 245 kts | 131° |
| 2026-04-21 13:36 | 54.59923 | 24.92597 | 5115 ft | 239 kts | 130° |
| 2026-04-21 13:36 | 54.58789 | 24.94632 | 5115 ft | 232 kts | 130° |
| 2026-04-21 13:36 | 54.57695 | 24.96622 | 5125 ft | 225 kts | 130° |
| 2026-04-21 13:36 | 54.56624 | 24.98582 | 4898 ft | 230 kts | 130° |
| 2026-04-21 13:37 | 54.55488 | 25.00696 | 4358 ft | 250 kts | 130° |
| 2026-04-21 13:37 | 54.54294 | 25.02935 | 3957 ft | 251 kts | 130° |
| 2026-04-21 13:37 | 54.53133 | 25.05081 | 3829 ft | 239 kts | 130° |
| 2026-04-21 13:37 | 54.52030 | 25.07123 | 3573 ft | 234 kts | 130° |
| 2026-04-21 13:38 | 54.50914 | 25.09184 | 3173 ft | 234 kts | 130° |
| 2026-04-21 13:38 | 54.49834 | 25.11193 | 3114 ft | 222 kts | 124° |
| 2026-04-21 13:38 | 54.49167 | 25.13468 | 3121 ft | 208 kts | 98° |
| 2026-04-21 13:38 | 54.49122 | 25.15856 | 3125 ft | 195 kts | 75° |
| 2026-04-21 13:39 | 54.49638 | 25.18019 | 3214 ft | 198 kts | 52° |
| 2026-04-21 13:39 | 54.50608 | 25.19659 | 3172 ft | 200 kts | 29° |
| 2026-04-21 13:39 | 54.51907 | 25.20632 | 2913 ft | 199 kts | 20° |
| 2026-04-21 13:39 | 54.53124 | 25.21469 | 2639 ft | 178 kts | 20° |
| 2026-04-21 13:40 | 54.54178 | 25.22196 | 2404 ft | 150 kts | 21° |
| 2026-04-21 13:40 | 54.54807 | 25.22630 | 2254 ft | 139 kts | 21° |
| 2026-04-21 13:40 | 54.55917 | 25.23395 | 2027 ft | 125 kts | 19° |
| 2026-04-21 13:40 | 54.56454 | 25.23765 | 1909 ft | 126 kts | 19° |
| 2026-04-21 13:41 | 54.57250 | 25.24315 | 1745 ft | 121 kts | 19° |
| 2026-04-21 13:41 | 54.58027 | 25.24846 | 1581 ft | 121 kts | 20° |
| 2026-04-21 13:41 | 54.58826 | 25.25400 | 1408 ft | 126 kts | 19° |
| 2026-04-21 13:41 | 54.59635 | 25.25959 | 1213 ft | 126 kts | 18° |
| 2026-04-21 13:42 | 54.60450 | 25.26524 | 1043 ft | 126 kts | 16° |
| 2026-04-21 13:42 | 54.61247 | 25.27076 | 884 ft | 123 kts | 19° |
| 2026-04-21 13:42 | 54.62041 | 25.27638 | 719 ft | 122 kts | 17° |
| 2026-04-21 13:42 | 54.62821 | 25.28161 | 612 ft | 112 kts | 17° |
| 2026-04-21 13:43 | 54.63274 | 25.28477 | 619 ft | 33 kts | 23° |
| 2026-04-21 13:43 | 54.63411 | 25.28535 | 630 ft | 14 kts | 337° |
| 2026-04-21 13:43 | 54.63461 | 25.28420 | 636 ft | 11 kts | 326° |
| 2026-04-21 13:43 | 54.63521 | 25.28392 | 633 ft | 7 kts | 347° |
| 2026-04-21 13:44 | 54.63556 | 25.28378 | 631 ft | 3 kts | 347° |
| 2026-04-21 13:44 | 54.63568 | 25.28374 | 631 ft | 0 kts | 347° |
| 2026-04-21 13:44 | 54.63618 | 25.28355 | 632 ft | 15 kts | 347° |
| 2026-04-21 13:45 | 54.63771 | 25.28294 | 632 ft | 28 kts | 348° |
| 2026-04-21 13:45 | 54.63964 | 25.28220 | 638 ft | 34 kts | 347° |
| 2026-04-21 13:45 | 54.64142 | 25.28153 | 641 ft | 12 kts | 0° |
| 2026-04-21 13:45 | 54.64221 | 25.28195 | 640 ft | 0 kts | 359° |